sensor_id;sensor_type;location;lat;lon;timestamp;P1;durP1;ratioP1;P2;durP2;ratioP2
41167;SDS011;26906;45.658;9.272;2023-04-25T05:21:21;5.85;;;2.30;;
41167;SDS011;26906;45.658;9.272;2023-04-25T05:24:06;3.78;;;1.95;;
41167;SDS011;26906;45.658;9.272;2023-04-25T05:26:50;2.47;;;1.60;;
41167;SDS011;26906;45.658;9.272;2023-04-25T05:29:35;4.80;;;1.70;;
41167;SDS011;26906;45.658;9.272;2023-04-25T05:32:22;2.47;;;1.58;;
41167;SDS011;26906;45.658;9.272;2023-04-25T05:34:50;3.53;;;1.50;;
41167;SDS011;26906;45.658;9.272;2023-04-25T05:37:22;2.47;;;1.33;;
41167;SDS011;26906;45.658;9.272;2023-04-25T05:39:54;3.67;;;1.38;;
41167;SDS011;26906;45.658;9.272;2023-04-25T05:42:45;2.72;;;1.48;;
41167;SDS011;26906;45.658;9.272;2023-04-25T05:45:31;2.65;;;1.70;;
41167;SDS011;26906;45.658;9.272;2023-04-25T05:48:08;2.70;;;1.73;;
41167;SDS011;26906;45.658;9.272;2023-04-25T05:50:56;2.35;;;1.55;;
41167;SDS011;26906;45.658;9.272;2023-04-25T05:53:40;3.13;;;1.70;;
41167;SDS011;26906;45.658;9.272;2023-04-25T05:56:06;3.15;;;1.50;;
41167;SDS011;26906;45.658;9.272;2023-04-25T05:58:31;1.52;;;1.23;;
41167;SDS011;26906;45.658;9.272;2023-04-25T06:00:59;3.88;;;1.30;;
41167;SDS011;26906;45.658;9.272;2023-04-25T06:03:25;2.85;;;1.33;;
41167;SDS011;26906;45.658;9.272;2023-04-25T06:05:51;2.35;;;1.20;;
41167;SDS011;26906;45.658;9.272;2023-04-25T06:08:18;2.38;;;1.10;;
41167;SDS011;26906;45.658;9.272;2023-04-25T06:10:44;3.05;;;1.30;;
41167;SDS011;26906;45.658;9.272;2023-04-25T06:13:10;2.80;;;1.10;;
41167;SDS011;26906;45.658;9.272;2023-04-25T06:15:36;1.95;;;1.23;;
41167;SDS011;26906;45.658;9.272;2023-04-25T06:18:02;3.67;;;1.30;;
41167;SDS011;26906;45.658;9.272;2023-04-25T06:20:28;1.80;;;1.00;;
41167;SDS011;26906;45.658;9.272;2023-04-25T06:22:56;3.05;;;1.02;;
41167;SDS011;26906;45.658;9.272;2023-04-25T06:25:42;4.55;;;0.90;;
41167;SDS011;26906;45.658;9.272;2023-04-25T06:28:08;2.70;;;1.13;;
41167;SDS011;26906;45.658;9.272;2023-04-25T06:30:34;1.70;;;1.08;;
41167;SDS011;26906;45.658;9.272;2023-04-25T06:33:05;2.33;;;1.13;;
41167;SDS011;26906;45.658;9.272;2023-04-25T06:35:31;2.10;;;1.10;;
41167;SDS011;26906;45.658;9.272;2023-04-25T06:37:57;1.92;;;1.00;;
41167;SDS011;26906;45.658;9.272;2023-04-25T06:40:23;1.73;;;1.17;;
41167;SDS011;26906;45.658;9.272;2023-04-25T06:42:50;4.18;;;1.20;;
41167;SDS011;26906;45.658;9.272;2023-04-25T06:45:36;3.22;;;1.40;;
41167;SDS011;26906;45.658;9.272;2023-04-25T06:48:02;1.80;;;1.13;;
41167;SDS011;26906;45.658;9.272;2023-04-25T06:50:28;1.77;;;0.95;;
41167;SDS011;26906;45.658;9.272;2023-04-25T06:52:54;2.75;;;1.00;;
41167;SDS011;26906;45.658;9.272;2023-04-25T06:55:20;0.98;;;0.85;;
41167;SDS011;26906;45.658;9.272;2023-04-25T06:58:03;1.30;;;0.90;;
41167;SDS011;26906;45.658;9.272;2023-04-25T07:00:48;2.05;;;1.17;;
41167;SDS011;26906;45.658;9.272;2023-04-25T07:03:15;1.65;;;1.00;;
41167;SDS011;26906;45.658;9.272;2023-04-25T07:05:41;1.25;;;1.08;;
41167;SDS011;26906;45.658;9.272;2023-04-25T07:08:07;1.58;;;1.05;;
41167;SDS011;26906;45.658;9.272;2023-04-25T07:10:33;2.13;;;1.00;;
41167;SDS011;26906;45.658;9.272;2023-04-25T07:12:58;4.78;;;1.10;;
41167;SDS011;26906;45.658;9.272;2023-04-25T07:15:24;1.15;;;0.95;;
41167;SDS011;26906;45.658;9.272;2023-04-25T07:17:50;2.55;;;1.20;;
41167;SDS011;26906;45.658;9.272;2023-04-25T07:20:16;1.30;;;1.08;;
41167;SDS011;26906;45.658;9.272;2023-04-25T07:22:42;1.90;;;1.30;;
41167;SDS011;26906;45.658;9.272;2023-04-25T07:25:09;1.30;;;1.10;;
41167;SDS011;26906;45.658;9.272;2023-04-25T07:27:35;1.58;;;1.20;;
41167;SDS011;26906;45.658;9.272;2023-04-25T07:30:07;1.52;;;1.10;;
41167;SDS011;26906;45.658;9.272;2023-04-25T07:32:33;3.25;;;1.05;;
41167;SDS011;26906;45.658;9.272;2023-04-25T07:34:59;2.60;;;1.10;;
41167;SDS011;26906;45.658;9.272;2023-04-25T07:37:26;2.35;;;1.40;;
41167;SDS011;26906;45.658;9.272;2023-04-25T07:40:02;2.42;;;1.60;;
41167;SDS011;26906;45.658;9.272;2023-04-25T07:42:29;1.60;;;1.30;;
41167;SDS011;26906;45.658;9.272;2023-04-25T07:44:55;2.60;;;1.20;;
41167;SDS011;26906;45.658;9.272;2023-04-25T07:47:21;1.30;;;1.08;;
41167;SDS011;26906;45.658;9.272;2023-04-25T07:49:47;2.03;;;1.50;;
41167;SDS011;26906;45.658;9.272;2023-04-25T07:52:13;1.85;;;1.30;;
41167;SDS011;26906;45.658;9.272;2023-04-25T07:54:45;3.55;;;1.33;;
41167;SDS011;26906;45.658;9.272;2023-04-25T07:57:16;2.45;;;1.45;;
41167;SDS011;26906;45.658;9.272;2023-04-25T07:59:45;3.63;;;1.48;;
41167;SDS011;26906;45.658;9.272;2023-04-25T08:02:12;2.65;;;1.35;;
41167;SDS011;26906;45.658;9.272;2023-04-25T08:04:39;10.35;;;1.55;;
41167;SDS011;26906;45.658;9.272;2023-04-25T08:07:07;2.20;;;1.60;;
41167;SDS011;26906;45.658;9.272;2023-04-25T08:09:43;2.80;;;1.95;;
41167;SDS011;26906;45.658;9.272;2023-04-25T08:14:42;2.50;;;1.70;;
41167;SDS011;26906;45.658;9.272;2023-04-25T08:17:09;2.00;;;1.80;;
41167;SDS011;26906;45.658;9.272;2023-04-25T08:19:39;2.63;;;1.40;;
41167;SDS011;26906;45.658;9.272;2023-04-25T08:22:06;2.97;;;1.77;;
41167;SDS011;26906;45.658;9.272;2023-04-25T08:24:43;2.78;;;1.35;;
41167;SDS011;26906;45.658;9.272;2023-04-25T08:27:10;2.35;;;1.65;;
41167;SDS011;26906;45.658;9.272;2023-04-25T08:29:36;12.95;;;3.50;;
41167;SDS011;26906;45.658;9.272;2023-04-25T08:32:02;3.40;;;1.55;;
41167;SDS011;26906;45.658;9.272;2023-04-25T08:34:28;1.92;;;1.45;;
41167;SDS011;26906;45.658;9.272;2023-04-25T08:36:54;2.15;;;1.92;;
41167;SDS011;26906;45.658;9.272;2023-04-25T08:39:36;14.48;;;8.88;;
41167;SDS011;26906;45.658;9.272;2023-04-25T08:42:28;2.60;;;2.25;;
41167;SDS011;26906;45.658;9.272;2023-04-25T08:44:58;13.35;;;6.68;;
41167;SDS011;26906;45.658;9.272;2023-04-25T08:47:30;9.52;;;4.55;;
41167;SDS011;26906;45.658;9.272;2023-04-25T08:50:00;5.60;;;1.77;;
41167;SDS011;26906;45.658;9.272;2023-04-25T08:52:28;3.55;;;2.10;;
41167;SDS011;26906;45.658;9.272;2023-04-25T08:55:00;7.75;;;2.20;;
41167;SDS011;26906;45.658;9.272;2023-04-25T08:57:28;4.63;;;2.20;;
41167;SDS011;26906;45.658;9.272;2023-04-25T08:59:56;4.22;;;1.90;;
41167;SDS011;26906;45.658;9.272;2023-04-25T09:02:23;6.53;;;2.85;;
41167;SDS011;26906;45.658;9.272;2023-04-25T09:04:51;3.83;;;1.60;;
41167;SDS011;26906;45.658;9.272;2023-04-25T09:07:19;2.05;;;1.83;;
41167;SDS011;26906;45.658;9.272;2023-04-25T09:09:46;3.88;;;2.80;;
41167;SDS011;26906;45.658;9.272;2023-04-25T09:12:17;11.52;;;5.50;;
41167;SDS011;26906;45.658;9.272;2023-04-25T09:14:55;13.35;;;6.53;;
41167;SDS011;26906;45.658;9.272;2023-04-25T09:17:57;9.65;;;5.85;;
41167;SDS011;26906;45.658;9.272;2023-04-25T09:20:28;8.43;;;4.70;;
41167;SDS011;26906;45.658;9.272;2023-04-25T09:23:03;5.35;;;1.60;;
41167;SDS011;26906;45.658;9.272;2023-04-25T09:25:34;3.10;;;1.98;;
41167;SDS011;26906;45.658;9.272;2023-04-25T09:28:04;1.85;;;1.40;;
41167;SDS011;26906;45.658;9.272;2023-04-25T09:30:32;5.03;;;2.17;;
41167;SDS011;26906;45.658;9.272;2023-04-25T09:33:06;3.83;;;2.20;;
41167;SDS011;26906;45.658;9.272;2023-04-25T09:35:39;3.72;;;1.58;;
41167;SDS011;26906;45.658;9.272;2023-04-25T09:38:11;3.33;;;1.80;;
41167;SDS011;26906;45.658;9.272;2023-04-25T09:40:51;1.85;;;1.23;;
41167;SDS011;26906;45.658;9.272;2023-04-25T09:43:46;2.33;;;1.70;;
41167;SDS011;26906;45.658;9.272;2023-04-25T09:46:15;3.10;;;1.52;;
41167;SDS011;26906;45.658;9.272;2023-04-25T09:48:49;2.00;;;1.70;;
41167;SDS011;26906;45.658;9.272;2023-04-25T09:51:21;7.50;;;1.90;;
41167;SDS011;26906;45.658;9.272;2023-04-25T09:53:51;1.67;;;1.50;;
41167;SDS011;26906;45.658;9.272;2023-04-25T09:56:35;2.92;;;1.60;;
41167;SDS011;26906;45.658;9.272;2023-04-25T09:59:06;2.72;;;1.90;;
41167;SDS011;26906;45.658;9.272;2023-04-25T10:01:35;10.48;;;5.43;;
41167;SDS011;26906;45.658;9.272;2023-04-25T10:04:19;10.95;;;5.65;;
41167;SDS011;26906;45.658;9.272;2023-04-25T10:06:58;5.45;;;3.92;;
41167;SDS011;26906;45.658;9.272;2023-04-25T10:09:26;3.25;;;2.10;;
41167;SDS011;26906;45.658;9.272;2023-04-25T10:11:56;3.15;;;2.20;;
41167;SDS011;26906;45.658;9.272;2023-04-25T10:14:23;6.68;;;2.17;;
41167;SDS011;26906;45.658;9.272;2023-04-25T10:16:49;2.55;;;2.00;;
41167;SDS011;26906;45.658;9.272;2023-04-25T10:19:23;3.75;;;1.92;;
41167;SDS011;26906;45.658;9.272;2023-04-25T10:21:51;3.92;;;2.42;;
41167;SDS011;26906;45.658;9.272;2023-04-25T10:24:17;3.80;;;2.10;;
41167;SDS011;26906;45.658;9.272;2023-04-25T10:26:44;5.85;;;2.88;;
41167;SDS011;26906;45.658;9.272;2023-04-25T10:29:10;4.60;;;2.40;;
41167;SDS011;26906;45.658;9.272;2023-04-25T10:31:44;4.90;;;2.70;;
41167;SDS011;26906;45.658;9.272;2023-04-25T10:34:12;4.47;;;2.60;;
41167;SDS011;26906;45.658;9.272;2023-04-25T10:36:38;4.43;;;3.00;;
41167;SDS011;26906;45.658;9.272;2023-04-25T10:39:05;4.68;;;2.40;;
41167;SDS011;26906;45.658;9.272;2023-04-25T10:44:25;4.65;;;2.28;;
41167;SDS011;26906;45.658;9.272;2023-04-25T10:46:54;5.70;;;2.20;;
41167;SDS011;26906;45.658;9.272;2023-04-25T10:49:31;3.47;;;2.20;;
41167;SDS011;26906;45.658;9.272;2023-04-25T10:57:31;4.40;;;2.83;;
41167;SDS011;26906;45.658;9.272;2023-04-25T11:00:06;5.40;;;2.58;;
41167;SDS011;26906;45.658;9.272;2023-04-25T11:02:42;4.43;;;3.15;;
41167;SDS011;26906;45.658;9.272;2023-04-25T11:05:10;22.35;;;10.40;;
41167;SDS011;26906;45.658;9.272;2023-04-25T11:07:49;4.78;;;2.40;;
41167;SDS011;26906;45.658;9.272;2023-04-25T11:10:32;3.75;;;2.47;;
41167;SDS011;26906;45.658;9.272;2023-04-25T11:13:00;6.45;;;3.22;;
41167;SDS011;26906;45.658;9.272;2023-04-25T11:15:26;3.88;;;2.47;;
41167;SDS011;26906;45.658;9.272;2023-04-25T11:17:53;3.88;;;2.20;;
41167;SDS011;26906;45.658;9.272;2023-04-25T11:20:19;3.40;;;2.33;;
41167;SDS011;26906;45.658;9.272;2023-04-25T11:22:46;4.57;;;2.88;;
41167;SDS011;26906;45.658;9.272;2023-04-25T11:25:13;4.22;;;2.40;;
41167;SDS011;26906;45.658;9.272;2023-04-25T11:27:52;12.35;;;6.22;;
41167;SDS011;26906;45.658;9.272;2023-04-25T11:30:19;6.28;;;2.45;;
41167;SDS011;26906;45.658;9.272;2023-04-25T11:32:47;4.55;;;2.17;;
41167;SDS011;26906;45.658;9.272;2023-04-25T11:35:13;5.40;;;2.38;;
41167;SDS011;26906;45.658;9.272;2023-04-25T11:37:39;3.78;;;2.08;;
41167;SDS011;26906;45.658;9.272;2023-04-25T11:40:06;3.97;;;2.00;;
41167;SDS011;26906;45.658;9.272;2023-04-25T11:42:33;3.85;;;2.25;;
41167;SDS011;26906;45.658;9.272;2023-04-25T11:44:59;5.00;;;2.45;;
41167;SDS011;26906;45.658;9.272;2023-04-25T11:47:31;4.35;;;2.30;;
41167;SDS011;26906;45.658;9.272;2023-04-25T11:49:58;3.80;;;1.87;;
41167;SDS011;26906;45.658;9.272;2023-04-25T11:52:34;5.53;;;1.80;;
41167;SDS011;26906;45.658;9.272;2023-04-25T11:55:08;4.38;;;2.10;;
41167;SDS011;26906;45.658;9.272;2023-04-25T11:57:45;2.80;;;2.00;;
41167;SDS011;26906;45.658;9.272;2023-04-25T12:00:20;4.80;;;1.90;;
41167;SDS011;26906;45.658;9.272;2023-04-25T12:02:47;4.13;;;2.25;;
41167;SDS011;26906;45.658;9.272;2023-04-25T12:05:17;4.10;;;2.10;;
41167;SDS011;26906;45.658;9.272;2023-04-25T12:07:44;4.47;;;2.50;;
41167;SDS011;26906;45.658;9.272;2023-04-25T12:10:12;3.40;;;2.35;;
41167;SDS011;26906;45.658;9.272;2023-04-25T12:12:42;5.38;;;2.60;;
41167;SDS011;26906;45.658;9.272;2023-04-25T12:15:13;3.53;;;2.40;;
41167;SDS011;26906;45.658;9.272;2023-04-25T12:17:41;7.50;;;2.67;;
41167;SDS011;26906;45.658;9.272;2023-04-25T12:20:10;4.70;;;3.20;;
41167;SDS011;26906;45.658;9.272;2023-04-25T12:22:40;8.10;;;3.83;;
41167;SDS011;26906;45.658;9.272;2023-04-25T12:25:09;8.60;;;3.70;;
41167;SDS011;26906;45.658;9.272;2023-04-25T12:27:39;11.85;;;3.45;;
41167;SDS011;26906;45.658;9.272;2023-04-25T12:30:09;6.38;;;3.33;;
41167;SDS011;26906;45.658;9.272;2023-04-25T12:32:36;8.43;;;3.55;;
41167;SDS011;26906;45.658;9.272;2023-04-25T12:35:03;7.53;;;3.83;;
41167;SDS011;26906;45.658;9.272;2023-04-25T12:37:29;8.40;;;4.03;;
41167;SDS011;26906;45.658;9.272;2023-04-25T12:39:55;9.00;;;4.38;;
41167;SDS011;26906;45.658;9.272;2023-04-25T12:42:21;2.92;;;1.90;;
41167;SDS011;26906;45.658;9.272;2023-04-25T12:44:47;2.45;;;1.33;;
41167;SDS011;26906;45.658;9.272;2023-04-25T12:47:15;4.15;;;1.60;;
41167;SDS011;26906;45.658;9.272;2023-04-25T12:49:42;4.80;;;2.08;;
41167;SDS011;26906;45.658;9.272;2023-04-25T12:52:07;2.97;;;2.10;;
41167;SDS011;26906;45.658;9.272;2023-04-25T12:54:33;3.03;;;2.08;;
41167;SDS011;26906;45.658;9.272;2023-04-25T12:56:59;2.72;;;1.90;;
41167;SDS011;26906;45.658;9.272;2023-04-25T12:59:26;3.17;;;1.77;;
41167;SDS011;26906;45.658;9.272;2023-04-25T13:01:52;1.65;;;0.98;;
41167;SDS011;26906;45.658;9.272;2023-04-25T13:04:18;2.28;;;0.82;;
41167;SDS011;26906;45.658;9.272;2023-04-25T13:06:45;1.08;;;0.70;;
41167;SDS011;26906;45.658;9.272;2023-04-25T13:09:11;2.67;;;1.15;;
41167;SDS011;26906;45.658;9.272;2023-04-25T13:11:37;1.30;;;0.70;;
41167;SDS011;26906;45.658;9.272;2023-04-25T13:14:02;1.50;;;0.80;;
41167;SDS011;26906;45.658;9.272;2023-04-25T13:16:28;2.60;;;1.02;;
41167;SDS011;26906;45.658;9.272;2023-04-25T13:18:54;1.45;;;0.85;;
41167;SDS011;26906;45.658;9.272;2023-04-25T13:21:21;2.88;;;1.05;;
41167;SDS011;26906;45.658;9.272;2023-04-25T13:23:46;1.98;;;0.90;;
41167;SDS011;26906;45.658;9.272;2023-04-25T13:26:12;1.50;;;0.80;;
41167;SDS011;26906;45.658;9.272;2023-04-25T13:28:38;1.15;;;0.85;;
41167;SDS011;26906;45.658;9.272;2023-04-25T13:31:05;1.80;;;0.60;;
41167;SDS011;26906;45.658;9.272;2023-04-25T13:33:31;1.75;;;1.38;;
41167;SDS011;26906;45.658;9.272;2023-04-25T13:35:56;3.30;;;0.82;;
41167;SDS011;26906;45.658;9.272;2023-04-25T13:38:23;0.80;;;0.70;;
41167;SDS011;26906;45.658;9.272;2023-04-25T13:40:49;4.07;;;1.38;;
41167;SDS011;26906;45.658;9.272;2023-04-25T13:43:18;1.95;;;1.00;;
41167;SDS011;26906;45.658;9.272;2023-04-25T13:45:47;1.35;;;0.80;;
41167;SDS011;26906;45.658;9.272;2023-04-25T13:48:13;1.23;;;0.80;;
41167;SDS011;26906;45.658;9.272;2023-04-25T13:50:39;1.95;;;0.77;;
41167;SDS011;26906;45.658;9.272;2023-04-25T13:53:05;1.45;;;0.73;;
41167;SDS011;26906;45.658;9.272;2023-04-25T13:55:30;1.70;;;1.10;;
41167;SDS011;26906;45.658;9.272;2023-04-25T13:57:56;2.78;;;1.05;;
41167;SDS011;26906;45.658;9.272;2023-04-25T14:00:22;1.58;;;1.00;;
41167;SDS011;26906;45.658;9.272;2023-04-25T14:02:48;2.05;;;0.75;;
41167;SDS011;26906;45.658;9.272;2023-04-25T14:05:14;2.25;;;0.70;;
41167;SDS011;26906;45.658;9.272;2023-04-25T14:07:40;1.00;;;0.70;;
41167;SDS011;26906;45.658;9.272;2023-04-25T14:10:05;3.50;;;0.93;;
41167;SDS011;26906;45.658;9.272;2023-04-25T14:12:32;2.15;;;0.60;;
41167;SDS011;26906;45.658;9.272;2023-04-25T14:14:59;0.93;;;0.60;;
41167;SDS011;26906;45.658;9.272;2023-04-25T14:17:25;4.38;;;0.70;;
41167;SDS011;26906;45.658;9.272;2023-04-25T14:19:50;2.40;;;0.82;;
41167;SDS011;26906;45.658;9.272;2023-04-25T14:22:16;2.90;;;0.80;;
41167;SDS011;26906;45.658;9.272;2023-04-25T14:24:42;1.95;;;0.75;;
41167;SDS011;26906;45.658;9.272;2023-04-25T14:27:08;2.08;;;0.80;;
41167;SDS011;26906;45.658;9.272;2023-04-25T14:29:34;2.22;;;0.90;;
41167;SDS011;26906;45.658;9.272;2023-04-25T14:32:00;3.28;;;0.75;;
41167;SDS011;26906;45.658;9.272;2023-04-25T14:34:25;1.95;;;0.90;;
41167;SDS011;26906;45.658;9.272;2023-04-25T14:36:51;4.57;;;0.73;;
41167;SDS011;26906;45.658;9.272;2023-04-25T14:39:17;1.23;;;0.88;;
41167;SDS011;26906;45.658;9.272;2023-04-25T14:41:44;2.40;;;0.77;;
41167;SDS011;26906;45.658;9.272;2023-04-25T14:44:10;1.15;;;0.75;;
41167;SDS011;26906;45.658;9.272;2023-04-25T14:46:36;3.15;;;1.00;;
41167;SDS011;26906;45.658;9.272;2023-04-25T14:49:02;1.85;;;0.60;;
41167;SDS011;26906;45.658;9.272;2023-04-25T14:51:28;1.40;;;0.80;;
41167;SDS011;26906;45.658;9.272;2023-04-25T14:53:55;1.92;;;1.15;;
41167;SDS011;26906;45.658;9.272;2023-04-25T14:56:21;1.20;;;0.70;;
41167;SDS011;26906;45.658;9.272;2023-04-25T14:58:47;2.05;;;0.77;;
41167;SDS011;26906;45.658;9.272;2023-04-25T15:01:12;0.82;;;0.52;;
41167;SDS011;26906;45.658;9.272;2023-04-25T15:03:39;0.98;;;0.60;;
41167;SDS011;26906;45.658;9.272;2023-04-25T15:06:06;1.67;;;0.68;;
41167;SDS011;26906;45.658;9.272;2023-04-25T15:08:31;1.75;;;0.50;;
41167;SDS011;26906;45.658;9.272;2023-04-25T15:10:59;1.45;;;0.80;;
41167;SDS011;26906;45.658;9.272;2023-04-25T15:13:27;1.40;;;0.65;;
41167;SDS011;26906;45.658;9.272;2023-04-25T15:15:53;2.65;;;0.80;;
41167;SDS011;26906;45.658;9.272;2023-04-25T15:18:22;1.17;;;0.70;;
41167;SDS011;26906;45.658;9.272;2023-04-25T15:20:51;2.88;;;0.60;;
41167;SDS011;26906;45.658;9.272;2023-04-25T15:23:17;0.98;;;0.68;;
41167;SDS011;26906;45.658;9.272;2023-04-25T15:25:44;0.93;;;0.52;;
41167;SDS011;26906;45.658;9.272;2023-04-25T15:28:10;2.15;;;0.60;;
41167;SDS011;26906;45.658;9.272;2023-04-25T15:30:36;0.93;;;0.60;;
41167;SDS011;26906;45.658;9.272;2023-04-25T15:33:01;0.90;;;0.60;;
41167;SDS011;26906;45.658;9.272;2023-04-25T15:35:27;1.42;;;0.60;;
41167;SDS011;26906;45.658;9.272;2023-04-25T15:37:53;1.55;;;0.60;;
41167;SDS011;26906;45.658;9.272;2023-04-25T15:40:19;1.05;;;0.55;;
41167;SDS011;26906;45.658;9.272;2023-04-25T15:42:45;0.75;;;0.75;;
41167;SDS011;26906;45.658;9.272;2023-04-25T15:45:13;0.63;;;0.52;;
41167;SDS011;26906;45.658;9.272;2023-04-25T15:47:39;1.52;;;0.60;;
41167;SDS011;26906;45.658;9.272;2023-04-25T15:50:06;2.75;;;0.50;;
41167;SDS011;26906;45.658;9.272;2023-04-25T15:52:34;1.85;;;0.70;;
41167;SDS011;26906;45.658;9.272;2023-04-25T15:55:00;1.23;;;0.70;;
41167;SDS011;26906;45.658;9.272;2023-04-25T15:57:26;1.85;;;0.80;;
41167;SDS011;26906;45.658;9.272;2023-04-25T15:59:52;0.73;;;0.73;;
41167;SDS011;26906;45.658;9.272;2023-04-25T16:02:18;1.23;;;0.60;;
41167;SDS011;26906;45.658;9.272;2023-04-25T16:04:44;3.38;;;0.80;;
41167;SDS011;26906;45.658;9.272;2023-04-25T16:07:11;0.50;;;0.50;;
41167;SDS011;26906;45.658;9.272;2023-04-25T16:09:38;0.73;;;0.60;;
41167;SDS011;26906;45.658;9.272;2023-04-25T16:12:04;1.02;;;0.60;;
41167;SDS011;26906;45.658;9.272;2023-04-25T16:14:31;1.63;;;0.60;;
41167;SDS011;26906;45.658;9.272;2023-04-25T16:16:57;1.27;;;0.70;;
41167;SDS011;26906;45.658;9.272;2023-04-25T16:19:23;2.28;;;0.80;;
41167;SDS011;26906;45.658;9.272;2023-04-25T16:21:48;0.90;;;0.70;;
41167;SDS011;26906;45.658;9.272;2023-04-25T16:24:15;5.35;;;1.77;;
41167;SDS011;26906;45.658;9.272;2023-04-25T16:26:41;4.22;;;1.42;;
41167;SDS011;26906;45.658;9.272;2023-04-25T16:29:08;1.40;;;0.68;;
41167;SDS011;26906;45.658;9.272;2023-04-25T16:31:34;2.65;;;0.50;;
41167;SDS011;26906;45.658;9.272;2023-04-25T16:34:03;1.15;;;0.50;;
41167;SDS011;26906;45.658;9.272;2023-04-25T16:36:29;1.05;;;0.60;;
41167;SDS011;26906;45.658;9.272;2023-04-25T16:38:56;1.60;;;0.63;;
41167;SDS011;26906;45.658;9.272;2023-04-25T16:41:22;2.85;;;2.22;;
41167;SDS011;26906;45.658;9.272;2023-04-25T16:43:49;3.00;;;2.25;;
41167;SDS011;26906;45.658;9.272;2023-04-25T16:46:15;2.10;;;0.73;;
41167;SDS011;26906;45.658;9.272;2023-04-25T16:48:43;0.88;;;0.60;;
41167;SDS011;26906;45.658;9.272;2023-04-25T16:51:10;0.63;;;0.45;;
41167;SDS011;26906;45.658;9.272;2023-04-25T16:53:37;1.92;;;0.55;;
41167;SDS011;26906;45.658;9.272;2023-04-25T16:56:02;1.05;;;0.52;;
41167;SDS011;26906;45.658;9.272;2023-04-25T16:58:29;0.63;;;0.63;;
41167;SDS011;26906;45.658;9.272;2023-04-25T17:00:55;1.30;;;0.55;;
41167;SDS011;26906;45.658;9.272;2023-04-25T17:03:21;1.95;;;0.77;;
41167;SDS011;26906;45.658;9.272;2023-04-25T17:05:49;1.17;;;0.57;;
41167;SDS011;26906;45.658;9.272;2023-04-25T17:08:15;1.20;;;0.40;;
41167;SDS011;26906;45.658;9.272;2023-04-25T17:10:41;0.73;;;0.60;;
41167;SDS011;26906;45.658;9.272;2023-04-25T17:13:07;1.08;;;0.50;;
41167;SDS011;26906;45.658;9.272;2023-04-25T17:15:32;0.52;;;0.47;;
41167;SDS011;26906;45.658;9.272;2023-04-25T17:17:58;0.50;;;0.50;;
41167;SDS011;26906;45.658;9.272;2023-04-25T17:20:24;0.85;;;0.40;;
41167;SDS011;26906;45.658;9.272;2023-04-25T17:22:52;1.95;;;0.82;;
41167;SDS011;26906;45.658;9.272;2023-04-25T17:25:18;1.58;;;0.93;;
41167;SDS011;26906;45.658;9.272;2023-04-25T17:27:44;1.30;;;0.60;;
41167;SDS011;26906;45.658;9.272;2023-04-25T17:30:10;2.40;;;0.55;;
41167;SDS011;26906;45.658;9.272;2023-04-25T17:32:36;1.15;;;0.93;;
41167;SDS011;26906;45.658;9.272;2023-04-25T17:35:03;0.98;;;0.70;;
41167;SDS011;26906;45.658;9.272;2023-04-25T17:37:29;2.33;;;0.95;;
41167;SDS011;26906;45.658;9.272;2023-04-25T17:39:55;3.13;;;1.13;;
41167;SDS011;26906;45.658;9.272;2023-04-25T17:42:21;1.77;;;1.50;;
41167;SDS011;26906;45.658;9.272;2023-04-25T17:44:47;1.30;;;1.20;;
41167;SDS011;26906;45.658;9.272;2023-04-25T17:47:13;2.17;;;1.50;;
41167;SDS011;26906;45.658;9.272;2023-04-25T17:49:41;1.80;;;1.70;;
41167;SDS011;26906;45.658;9.272;2023-04-25T17:52:07;1.92;;;1.70;;
41167;SDS011;26906;45.658;9.272;2023-04-25T17:54:33;2.10;;;1.73;;
41167;SDS011;26906;45.658;9.272;2023-04-25T17:56:59;3.17;;;1.50;;
41167;SDS011;26906;45.658;9.272;2023-04-25T17:59:25;4.65;;;1.77;;
41167;SDS011;26906;45.658;9.272;2023-04-25T18:01:52;2.30;;;1.58;;
41167;SDS011;26906;45.658;9.272;2023-04-25T18:04:18;2.33;;;1.35;;
41167;SDS011;26906;45.658;9.272;2023-04-25T18:06:44;2.97;;;1.33;;
41167;SDS011;26906;45.658;9.272;2023-04-25T18:09:11;2.05;;;1.25;;
41167;SDS011;26906;45.658;9.272;2023-04-25T18:11:45;3.90;;;1.38;;
41167;SDS011;26906;45.658;9.272;2023-04-25T18:14:15;1.77;;;1.30;;
41167;SDS011;26906;45.658;9.272;2023-04-25T18:16:49;2.30;;;1.38;;
41167;SDS011;26906;45.658;9.272;2023-04-25T18:19:17;3.20;;;1.55;;
41167;SDS011;26906;45.658;9.272;2023-04-25T18:21:47;2.10;;;1.48;;
41167;SDS011;26906;45.658;9.272;2023-04-25T18:24:13;2.10;;;1.10;;
41167;SDS011;26906;45.658;9.272;2023-04-25T18:26:43;1.40;;;1.20;;
41167;SDS011;26906;45.658;9.272;2023-04-25T18:29:11;1.45;;;1.23;;
41167;SDS011;26906;45.658;9.272;2023-04-25T18:31:37;1.77;;;1.50;;
41167;SDS011;26906;45.658;9.272;2023-04-25T18:34:03;2.00;;;1.40;;
41167;SDS011;26906;45.658;9.272;2023-04-25T18:36:29;3.08;;;1.60;;
41167;SDS011;26906;45.658;9.272;2023-04-25T18:38:55;2.15;;;1.92;;
41167;SDS011;26906;45.658;9.272;2023-04-25T18:41:23;1.70;;;1.60;;
41167;SDS011;26906;45.658;9.272;2023-04-25T18:43:50;1.40;;;1.30;;
41167;SDS011;26906;45.658;9.272;2023-04-25T18:46:16;2.03;;;1.30;;
41167;SDS011;26906;45.658;9.272;2023-04-25T18:48:46;1.40;;;1.30;;
41167;SDS011;26906;45.658;9.272;2023-04-25T18:51:15;3.55;;;1.45;;
41167;SDS011;26906;45.658;9.272;2023-04-25T18:53:41;3.83;;;1.40;;
41167;SDS011;26906;45.658;9.272;2023-04-25T18:56:07;2.65;;;1.27;;
41167;SDS011;26906;45.658;9.272;2023-04-25T18:58:33;3.53;;;1.48;;
41167;SDS011;26906;45.658;9.272;2023-04-25T19:00:59;1.85;;;1.40;;
41167;SDS011;26906;45.658;9.272;2023-04-25T19:03:25;3.78;;;1.30;;
41167;SDS011;26906;45.658;9.272;2023-04-25T19:05:52;2.05;;;1.58;;
41167;SDS011;26906;45.658;9.272;2023-04-25T19:08:18;2.15;;;1.17;;
41167;SDS011;26906;45.658;9.272;2023-04-25T19:10:44;2.95;;;1.70;;
41167;SDS011;26906;45.658;9.272;2023-04-25T19:13:11;1.88;;;1.50;;
41167;SDS011;26906;45.658;9.272;2023-04-25T19:15:39;2.65;;;1.35;;
41167;SDS011;26906;45.658;9.272;2023-04-25T19:18:04;2.00;;;1.50;;
41167;SDS011;26906;45.658;9.272;2023-04-25T19:20:31;2.13;;;1.50;;
41167;SDS011;26906;45.658;9.272;2023-04-25T19:22:58;2.15;;;1.73;;
41167;SDS011;26906;45.658;9.272;2023-04-25T19:25:23;2.72;;;1.42;;
41167;SDS011;26906;45.658;9.272;2023-04-25T19:27:50;2.60;;;1.55;;
41167;SDS011;26906;45.658;9.272;2023-04-25T19:30:16;1.80;;;1.40;;
41167;SDS011;26906;45.658;9.272;2023-04-25T19:32:41;1.67;;;1.58;;
41167;SDS011;26906;45.658;9.272;2023-04-25T19:35:09;3.35;;;1.70;;
41167;SDS011;26906;45.658;9.272;2023-04-25T19:37:38;1.70;;;1.60;;
41167;SDS011;26906;45.658;9.272;2023-04-25T19:40:10;1.60;;;1.50;;
41167;SDS011;26906;45.658;9.272;2023-04-25T19:42:37;2.33;;;1.63;;
41167;SDS011;26906;45.658;9.272;2023-04-25T19:45:03;1.92;;;1.52;;
41167;SDS011;26906;45.658;9.272;2023-04-25T19:47:30;1.73;;;1.63;;
41167;SDS011;26906;45.658;9.272;2023-04-25T19:49:55;2.42;;;1.63;;
41167;SDS011;26906;45.658;9.272;2023-04-25T19:52:21;3.15;;;1.55;;
41167;SDS011;26906;45.658;9.272;2023-04-25T19:54:47;5.45;;;2.00;;
41167;SDS011;26906;45.658;9.272;2023-04-25T19:57:12;2.13;;;1.52;;
41167;SDS011;26906;45.658;9.272;2023-04-25T19:59:39;3.47;;;1.42;;
41167;SDS011;26906;45.658;9.272;2023-04-25T20:02:05;2.75;;;1.63;;
41167;SDS011;26906;45.658;9.272;2023-04-25T20:04:33;2.15;;;1.92;;
41167;SDS011;26906;45.658;9.272;2023-04-25T20:06:59;1.90;;;1.67;;
41167;SDS011;26906;45.658;9.272;2023-04-25T20:09:25;3.78;;;1.90;;
41167;SDS011;26906;45.658;9.272;2023-04-25T20:11:51;3.33;;;1.63;;
41167;SDS011;26906;45.658;9.272;2023-04-25T20:14:17;1.83;;;1.73;;
41167;SDS011;26906;45.658;9.272;2023-04-25T20:16:43;2.78;;;1.63;;
41167;SDS011;26906;45.658;9.272;2023-04-25T20:19:08;1.77;;;1.65;;
41167;SDS011;26906;45.658;9.272;2023-04-25T20:21:35;2.90;;;1.95;;
41167;SDS011;26906;45.658;9.272;2023-04-25T20:24:01;1.70;;;1.60;;
41167;SDS011;26906;45.658;9.272;2023-04-25T20:26:27;2.72;;;1.98;;